sensor_id;sensor_type;location;lat;lon;timestamp;temperature;humidity
24338;DHT22;12457;50.832;4.346;2023-06-22T00:01:20;21.00;99.90
24338;DHT22;12457;50.832;4.346;2023-06-22T00:03:48;21.10;99.90
24338;DHT22;12457;50.832;4.346;2023-06-22T00:06:16;21.10;99.90
24338;DHT22;12457;50.832;4.346;2023-06-22T00:08:46;21.10;99.90
24338;DHT22;12457;50.832;4.346;2023-06-22T00:11:12;21.10;99.90
24338;DHT22;12457;50.832;4.346;2023-06-22T00:13:38;21.10;99.90
24338;DHT22;12457;50.832;4.346;2023-06-22T00:16:05;21.20;99.90
24338;DHT22;12457;50.832;4.346;2023-06-22T00:18:31;21.20;99.90
24338;DHT22;12457;50.832;4.346;2023-06-22T00:21:10;21.30;99.90
24338;DHT22;12457;50.832;4.346;2023-06-22T00:23:37;21.30;99.90
24338;DHT22;12457;50.832;4.346;2023-06-22T00:26:04;21.20;99.90
24338;DHT22;12457;50.832;4.346;2023-06-22T00:28:30;21.20;99.90
24338;DHT22;12457;50.832;4.346;2023-06-22T00:30:57;21.20;99.90
24338;DHT22;12457;50.832;4.346;2023-06-22T00:33:23;21.10;99.90
24338;DHT22;12457;50.832;4.346;2023-06-22T00:35:50;21.10;99.90
24338;DHT22;12457;50.832;4.346;2023-06-22T00:38:18;21.10;99.90
24338;DHT22;12457;50.832;4.346;2023-06-22T00:40:43;21.20;99.90
24338;DHT22;12457;50.832;4.346;2023-06-22T00:43:09;21.20;99.90
24338;DHT22;12457;50.832;4.346;2023-06-22T00:45:35;21.20;99.90
24338;DHT22;12457;50.832;4.346;2023-06-22T00:48:02;21.20;99.90
24338;DHT22;12457;50.832;4.346;2023-06-22T00:50:34;21.10;99.90
24338;DHT22;12457;50.832;4.346;2023-06-22T00:53:07;21.10;99.90
24338;DHT22;12457;50.832;4.346;2023-06-22T00:55:37;21.20;99.90
24338;DHT22;12457;50.832;4.346;2023-06-22T00:58:05;21.10;99.90
24338;DHT22;12457;50.832;4.346;2023-06-22T01:00:33;21.00;99.90
24338;DHT22;12457;50.832;4.346;2023-06-22T01:02:59;21.00;99.90
24338;DHT22;12457;50.832;4.346;2023-06-22T01:05:25;21.00;99.90
24338;DHT22;12457;50.832;4.346;2023-06-22T01:10:34;21.00;99.90
24338;DHT22;12457;50.832;4.346;2023-06-22T01:13:22;21.10;99.90
24338;DHT22;12457;50.832;4.346;2023-06-22T01:16:34;21.00;99.90
24338;DHT22;12457;50.832;4.346;2023-06-22T01:18:54;21.10;99.90
24338;DHT22;12457;50.832;4.346;2023-06-22T01:21:22;21.00;99.90
24338;DHT22;12457;50.832;4.346;2023-06-22T01:24:39;21.00;99.90
24338;DHT22;12457;50.832;4.346;2023-06-22T01:27:23;20.90;99.90
24338;DHT22;12457;50.832;4.346;2023-06-22T01:29:56;20.90;99.90
24338;DHT22;12457;50.832;4.346;2023-06-22T01:32:33;20.90;99.90
24338;DHT22;12457;50.832;4.346;2023-06-22T01:35:01;20.90;99.90
24338;DHT22;12457;50.832;4.346;2023-06-22T01:37:32;21.00;99.90
24338;DHT22;12457;50.832;4.346;2023-06-22T01:40:01;20.90;99.90
24338;DHT22;12457;50.832;4.346;2023-06-22T01:42:27;20.90;99.90
24338;DHT22;12457;50.832;4.346;2023-06-22T01:44:54;20.90;99.90
24338;DHT22;12457;50.832;4.346;2023-06-22T01:47:23;20.90;99.90
24338;DHT22;12457;50.832;4.346;2023-06-22T01:49:50;20.80;99.90
24338;DHT22;12457;50.832;4.346;2023-06-22T01:52:19;20.70;99.90
24338;DHT22;12457;50.832;4.346;2023-06-22T01:54:46;20.70;99.90
24338;DHT22;12457;50.832;4.346;2023-06-22T01:57:13;20.60;99.90
24338;DHT22;12457;50.832;4.346;2023-06-22T02:00:02;20.60;99.90
24338;DHT22;12457;50.832;4.346;2023-06-22T02:03:08;20.50;99.90
24338;DHT22;12457;50.832;4.346;2023-06-22T02:05:33;20.50;99.90
24338;DHT22;12457;50.832;4.346;2023-06-22T02:08:13;20.50;99.90
24338;DHT22;12457;50.832;4.346;2023-06-22T02:10:42;20.50;99.90
24338;DHT22;12457;50.832;4.346;2023-06-22T02:13:10;20.50;99.90
24338;DHT22;12457;50.832;4.346;2023-06-22T02:15:37;20.50;99.90
24338;DHT22;12457;50.832;4.346;2023-06-22T02:18:02;20.40;99.90
24338;DHT22;12457;50.832;4.346;2023-06-22T02:20:30;20.40;99.90
24338;DHT22;12457;50.832;4.346;2023-06-22T02:22:56;20.30;99.90
24338;DHT22;12457;50.832;4.346;2023-06-22T02:25:22;20.20;99.90
24338;DHT22;12457;50.832;4.346;2023-06-22T02:27:49;20.20;99.90
24338;DHT22;12457;50.832;4.346;2023-06-22T02:30:15;20.20;99.90
24338;DHT22;12457;50.832;4.346;2023-06-22T02:32:43;20.20;99.90
24338;DHT22;12457;50.832;4.346;2023-06-22T02:35:09;20.20;99.90
24338;DHT22;12457;50.832;4.346;2023-06-22T02:37:39;20.10;99.90
24338;DHT22;12457;50.832;4.346;2023-06-22T02:40:09;20.10;99.90
24338;DHT22;12457;50.832;4.346;2023-06-22T02:42:39;20.10;99.90
24338;DHT22;12457;50.832;4.346;2023-06-22T02:45:06;20.00;99.90
24338;DHT22;12457;50.832;4.346;2023-06-22T02:47:31;20.10;99.90
24338;DHT22;12457;50.832;4.346;2023-06-22T02:49:57;20.00;99.90
24338;DHT22;12457;50.832;4.346;2023-06-22T02:52:23;20.00;99.90
24338;DHT22;12457;50.832;4.346;2023-06-22T02:54:49;20.00;99.90
24338;DHT22;12457;50.832;4.346;2023-06-22T02:57:14;20.00;99.90
24338;DHT22;12457;50.832;4.346;2023-06-22T02:59:41;19.90;99.90
24338;DHT22;12457;50.832;4.346;2023-06-22T03:02:08;19.90;99.90
24338;DHT22;12457;50.832;4.346;2023-06-22T03:04:35;19.90;99.90
24338;DHT22;12457;50.832;4.346;2023-06-22T03:07:01;19.90;99.90
24338;DHT22;12457;50.832;4.346;2023-06-22T03:09:27;19.80;99.90
24338;DHT22;12457;50.832;4.346;2023-06-22T03:11:57;19.80;99.90
24338;DHT22;12457;50.832;4.346;2023-06-22T03:14:23;19.80;99.90
24338;DHT22;12457;50.832;4.346;2023-06-22T03:16:49;19.70;99.90
24338;DHT22;12457;50.832;4.346;2023-06-22T03:19:14;19.70;99.90
24338;DHT22;12457;50.832;4.346;2023-06-22T03:21:40;19.70;99.90
24338;DHT22;12457;50.832;4.346;2023-06-22T03:24:07;19.70;99.90
24338;DHT22;12457;50.832;4.346;2023-06-22T03:26:35;19.70;99.90
24338;DHT22;12457;50.832;4.346;2023-06-22T03:29:01;19.70;99.90
24338;DHT22;12457;50.832;4.346;2023-06-22T03:31:26;19.80;99.90
24338;DHT22;12457;50.832;4.346;2023-06-22T03:33:52;19.80;99.90
24338;DHT22;12457;50.832;4.346;2023-06-22T03:36:18;19.80;99.90
24338;DHT22;12457;50.832;4.346;2023-06-22T03:38:48;19.90;99.90
24338;DHT22;12457;50.832;4.346;2023-06-22T03:41:14;19.90;99.90
24338;DHT22;12457;50.832;4.346;2023-06-22T03:43:40;19.90;99.90
24338;DHT22;12457;50.832;4.346;2023-06-22T03:46:07;19.90;99.90
24338;DHT22;12457;50.832;4.346;2023-06-22T03:48:32;20.00;99.90
24338;DHT22;12457;50.832;4.346;2023-06-22T03:51:02;20.10;99.90
24338;DHT22;12457;50.832;4.346;2023-06-22T03:53:29;20.20;99.90
24338;DHT22;12457;50.832;4.346;2023-06-22T03:55:55;20.20;99.90
24338;DHT22;12457;50.832;4.346;2023-06-22T03:58:21;20.00;99.90
24338;DHT22;12457;50.832;4.346;2023-06-22T04:00:51;20.00;99.90
24338;DHT22;12457;50.832;4.346;2023-06-22T04:03:18;20.00;99.90
24338;DHT22;12457;50.832;4.346;2023-06-22T04:05:44;19.90;99.90
24338;DHT22;12457;50.832;4.346;2023-06-22T04:08:11;19.90;99.90
24338;DHT22;12457;50.832;4.346;2023-06-22T04:10:37;19.90;99.90
24338;DHT22;12457;50.832;4.346;2023-06-22T04:13:03;19.90;99.90
24338;DHT22;12457;50.832;4.346;2023-06-22T04:15:29;20.00;99.90
24338;DHT22;12457;50.832;4.346;2023-06-22T04:17:56;20.10;99.90
24338;DHT22;12457;50.832;4.346;2023-06-22T04:20:23;20.20;99.90
24338;DHT22;12457;50.832;4.346;2023-06-22T04:22:53;20.20;99.90
24338;DHT22;12457;50.832;4.346;2023-06-22T04:25:21;20.40;99.90
24338;DHT22;12457;50.832;4.346;2023-06-22T04:27:51;20.30;99.90
24338;DHT22;12457;50.832;4.346;2023-06-22T04:30:18;20.40;99.90
24338;DHT22;12457;50.832;4.346;2023-06-22T04:32:44;20.50;99.90
24338;DHT22;12457;50.832;4.346;2023-06-22T04:35:11;20.60;99.90
24338;DHT22;12457;50.832;4.346;2023-06-22T04:37:49;20.60;99.90
24338;DHT22;12457;50.832;4.346;2023-06-22T04:40:15;20.70;99.90
24338;DHT22;12457;50.832;4.346;2023-06-22T04:42:42;20.60;99.90
24338;DHT22;12457;50.832;4.346;2023-06-22T04:45:19;20.60;99.90
24338;DHT22;12457;50.832;4.346;2023-06-22T04:47:45;20.70;99.90
24338;DHT22;12457;50.832;4.346;2023-06-22T04:50:12;20.80;99.90
24338;DHT22;12457;50.832;4.346;2023-06-22T04:52:41;20.80;99.90
24338;DHT22;12457;50.832;4.346;2023-06-22T04:55:07;20.70;99.90
24338;DHT22;12457;50.832;4.346;2023-06-22T04:57:34;20.70;99.90
24338;DHT22;12457;50.832;4.346;2023-06-22T05:00:00;20.80;99.90
24338;DHT22;12457;50.832;4.346;2023-06-22T05:02:53;20.80;99.90
24338;DHT22;12457;50.832;4.346;2023-06-22T05:05:25;20.60;99.90
24338;DHT22;12457;50.832;4.346;2023-06-22T05:07:52;20.60;99.90
24338;DHT22;12457;50.832;4.346;2023-06-22T05:10:19;20.60;99.90
24338;DHT22;12457;50.832;4.346;2023-06-22T05:12:46;20.70;99.90
24338;DHT22;12457;50.832;4.346;2023-06-22T05:15:12;20.70;99.90
24338;DHT22;12457;50.832;4.346;2023-06-22T05:17:39;20.70;99.90
24338;DHT22;12457;50.832;4.346;2023-06-22T05:20:10;20.60;99.90
24338;DHT22;12457;50.832;4.346;2023-06-22T05:22:48;20.30;99.90
24338;DHT22;12457;50.832;4.346;2023-06-22T05:25:14;20.10;99.90
24338;DHT22;12457;50.832;4.346;2023-06-22T05:27:40;19.90;99.90
24338;DHT22;12457;50.832;4.346;2023-06-22T05:30:09;19.80;99.90
24338;DHT22;12457;50.832;4.346;2023-06-22T05:32:36;19.60;99.90
24338;DHT22;12457;50.832;4.346;2023-06-22T05:35:02;19.40;99.90
24338;DHT22;12457;50.832;4.346;2023-06-22T05:37:29;19.40;99.90
24338;DHT22;12457;50.832;4.346;2023-06-22T05:39:55;19.30;99.90
24338;DHT22;12457;50.832;4.346;2023-06-22T05:42:22;19.30;99.90
24338;DHT22;12457;50.832;4.346;2023-06-22T05:44:48;19.30;99.90
24338;DHT22;12457;50.832;4.346;2023-06-22T05:47:14;19.30;99.90
24338;DHT22;12457;50.832;4.346;2023-06-22T05:49:39;19.30;99.90
24338;DHT22;12457;50.832;4.346;2023-06-22T05:52:07;19.40;99.90
24338;DHT22;12457;50.832;4.346;2023-06-22T05:54:38;19.40;99.90
24338;DHT22;12457;50.832;4.346;2023-06-22T05:57:04;19.20;99.90
24338;DHT22;12457;50.832;4.346;2023-06-22T05:59:30;19.20;99.90
24338;DHT22;12457;50.832;4.346;2023-06-22T06:01:56;19.20;99.90
24338;DHT22;12457;50.832;4.346;2023-06-22T06:04:21;19.10;99.90
24338;DHT22;12457;50.832;4.346;2023-06-22T06:06:47;19.00;99.90
24338;DHT22;12457;50.832;4.346;2023-06-22T06:09:29;18.90;99.90
24338;DHT22;12457;50.832;4.346;2023-06-22T06:11:55;18.90;99.90
24338;DHT22;12457;50.832;4.346;2023-06-22T06:14:20;18.80;99.90
24338;DHT22;12457;50.832;4.346;2023-06-22T06:16:46;18.80;99.90
24338;DHT22;12457;50.832;4.346;2023-06-22T06:19:15;18.80;99.90
24338;DHT22;12457;50.832;4.346;2023-06-22T06:21:41;18.80;99.90
24338;DHT22;12457;50.832;4.346;2023-06-22T06:24:06;18.70;99.90
24338;DHT22;12457;50.832;4.346;2023-06-22T06:26:32;18.70;99.90
24338;DHT22;12457;50.832;4.346;2023-06-22T06:29:01;18.80;99.90
24338;DHT22;12457;50.832;4.346;2023-06-22T06:31:28;18.90;99.90
24338;DHT22;12457;50.832;4.346;2023-06-22T06:33:55;19.00;99.90
24338;DHT22;12457;50.832;4.346;2023-06-22T06:36:20;19.10;99.90
24338;DHT22;12457;50.832;4.346;2023-06-22T06:38:54;19.30;99.90
24338;DHT22;12457;50.832;4.346;2023-06-22T06:41:21;19.30;99.90
24338;DHT22;12457;50.832;4.346;2023-06-22T06:43:48;19.30;99.90
24338;DHT22;12457;50.832;4.346;2023-06-22T06:46:13;19.40;99.90
24338;DHT22;12457;50.832;4.346;2023-06-22T06:48:40;19.50;99.90
24338;DHT22;12457;50.832;4.346;2023-06-22T06:51:05;19.60;99.90
24338;DHT22;12457;50.832;4.346;2023-06-22T06:53:35;19.70;99.90
24338;DHT22;12457;50.832;4.346;2023-06-22T06:56:01;19.70;99.90
24338;DHT22;12457;50.832;4.346;2023-06-22T06:58:28;19.80;99.90
24338;DHT22;12457;50.832;4.346;2023-06-22T07:00:54;20.00;99.90
24338;DHT22;12457;50.832;4.346;2023-06-22T07:03:20;20.20;99.90
24338;DHT22;12457;50.832;4.346;2023-06-22T07:05:47;20.40;99.90
24338;DHT22;12457;50.832;4.346;2023-06-22T07:08:13;20.60;99.90
24338;DHT22;12457;50.832;4.346;2023-06-22T07:10:40;20.60;99.90
24338;DHT22;12457;50.832;4.346;2023-06-22T07:13:06;20.70;99.90
24338;DHT22;12457;50.832;4.346;2023-06-22T07:15:31;20.80;99.90
24338;DHT22;12457;50.832;4.346;2023-06-22T07:17:57;20.70;99.90
24338;DHT22;12457;50.832;4.346;2023-06-22T07:20:23;20.70;99.90
24338;DHT22;12457;50.832;4.346;2023-06-22T07:22:48;20.70;99.90
24338;DHT22;12457;50.832;4.346;2023-06-22T07:25:14;20.80;99.90
24338;DHT22;12457;50.832;4.346;2023-06-22T07:28:03;21.00;99.90
24338;DHT22;12457;50.832;4.346;2023-06-22T07:30:32;21.10;99.90
24338;DHT22;12457;50.832;4.346;2023-06-22T07:33:01;21.20;99.90
24338;DHT22;12457;50.832;4.346;2023-06-22T07:35:30;21.40;99.90
24338;DHT22;12457;50.832;4.346;2023-06-22T07:37:58;21.40;99.90
24338;DHT22;12457;50.832;4.346;2023-06-22T07:40:24;21.40;99.90
24338;DHT22;12457;50.832;4.346;2023-06-22T07:42:50;21.40;99.90
24338;DHT22;12457;50.832;4.346;2023-06-22T07:45:17;21.40;99.90
24338;DHT22;12457;50.832;4.346;2023-06-22T07:47:44;21.50;99.90
24338;DHT22;12457;50.832;4.346;2023-06-22T07:50:10;21.50;99.90
24338;DHT22;12457;50.832;4.346;2023-06-22T07:52:37;21.40;99.90
24338;DHT22;12457;50.832;4.346;2023-06-22T07:55:09;21.50;99.90
24338;DHT22;12457;50.832;4.346;2023-06-22T07:57:35;21.50;99.90
24338;DHT22;12457;50.832;4.346;2023-06-22T08:00:04;21.50;99.90
24338;DHT22;12457;50.832;4.346;2023-06-22T08:02:41;21.60;99.90
24338;DHT22;12457;50.832;4.346;2023-06-22T08:05:08;21.70;99.90
24338;DHT22;12457;50.832;4.346;2023-06-22T08:07:36;21.70;99.90
24338;DHT22;12457;50.832;4.346;2023-06-22T08:10:04;21.70;99.90
24338;DHT22;12457;50.832;4.346;2023-06-22T08:12:29;21.60;99.90
24338;DHT22;12457;50.832;4.346;2023-06-22T08:14:55;21.60;99.90
24338;DHT22;12457;50.832;4.346;2023-06-22T08:17:23;21.60;99.90
24338;DHT22;12457;50.832;4.346;2023-06-22T08:19:48;21.60;99.90
24338;DHT22;12457;50.832;4.346;2023-06-22T08:22:16;21.60;99.90
24338;DHT22;12457;50.832;4.346;2023-06-22T08:24:42;21.60;99.90
24338;DHT22;12457;50.832;4.346;2023-06-22T08:27:09;21.60;99.90
24338;DHT22;12457;50.832;4.346;2023-06-22T08:29:37;21.60;99.90
24338;DHT22;12457;50.832;4.346;2023-06-22T08:32:03;21.60;99.90
24338;DHT22;12457;50.832;4.346;2023-06-22T08:34:30;21.40;99.90
24338;DHT22;12457;50.832;4.346;2023-06-22T08:36:57;21.20;99.90
24338;DHT22;12457;50.832;4.346;2023-06-22T08:39:23;21.30;99.90
24338;DHT22;12457;50.832;4.346;2023-06-22T08:41:50;21.30;99.90
24338;DHT22;12457;50.832;4.346;2023-06-22T08:44:19;21.30;99.90
24338;DHT22;12457;50.832;4.346;2023-06-22T08:46:46;21.20;99.90
24338;DHT22;12457;50.832;4.346;2023-06-22T08:49:13;21.10;99.90
24338;DHT22;12457;50.832;4.346;2023-06-22T08:51:38;21.00;99.90
24338;DHT22;12457;50.832;4.346;2023-06-22T08:54:04;21.00;99.90
24338;DHT22;12457;50.832;4.346;2023-06-22T08:56:30;20.90;99.90
24338;DHT22;12457;50.832;4.346;2023-06-22T08:58:56;20.90;99.90
24338;DHT22;12457;50.832;4.346;2023-06-22T09:01:23;21.00;99.90
24338;DHT22;12457;50.832;4.346;2023-06-22T09:03:51;21.10;99.90
24338;DHT22;12457;50.832;4.346;2023-06-22T09:06:21;21.10;99.90
24338;DHT22;12457;50.832;4.346;2023-06-22T09:08:47;21.20;99.90
24338;DHT22;12457;50.832;4.346;2023-06-22T09:11:13;21.20;99.90
24338;DHT22;12457;50.832;4.346;2023-06-22T09:13:40;21.10;99.90
24338;DHT22;12457;50.832;4.346;2023-06-22T09:16:06;21.10;99.90
24338;DHT22;12457;50.832;4.346;2023-06-22T09:18:33;21.10;99.90
24338;DHT22;12457;50.832;4.346;2023-06-22T09:20:59;21.00;99.90
24338;DHT22;12457;50.832;4.346;2023-06-22T09:23:26;21.00;99.90
24338;DHT22;12457;50.832;4.346;2023-06-22T09:25:51;21.00;99.90
24338;DHT22;12457;50.832;4.346;2023-06-22T09:28:17;21.00;99.90
24338;DHT22;12457;50.832;4.346;2023-06-22T09:30:44;21.10;99.90
24338;DHT22;12457;50.832;4.346;2023-06-22T09:33:10;21.00;99.90
24338;DHT22;12457;50.832;4.346;2023-06-22T09:35:36;20.70;99.90
24338;DHT22;12457;50.832;4.346;2023-06-22T09:38:01;20.50;99.90
24338;DHT22;12457;50.832;4.346;2023-06-22T09:40:32;20.10;99.90
24338;DHT22;12457;50.832;4.346;2023-06-22T09:43:02;19.80;99.90
24338;DHT22;12457;50.832;4.346;2023-06-22T09:45:27;19.60;99.90
24338;DHT22;12457;50.832;4.346;2023-06-22T09:47:53;19.30;99.90
24338;DHT22;12457;50.832;4.346;2023-06-22T09:50:19;19.00;99.90
24338;DHT22;12457;50.832;4.346;2023-06-22T09:52:45;18.70;99.90
24338;DHT22;12457;50.832;4.346;2023-06-22T09:55:16;18.60;99.90
24338;DHT22;12457;50.832;4.346;2023-06-22T09:57:42;18.60;99.90
24338;DHT22;12457;50.832;4.346;2023-06-22T10:00:08;18.60;99.90
24338;DHT22;12457;50.832;4.346;2023-06-22T10:02:36;18.60;99.90
24338;DHT22;12457;50.832;4.346;2023-06-22T10:05:02;18.60;99.90
24338;DHT22;12457;50.832;4.346;2023-06-22T10:07:27;18.70;99.90
24338;DHT22;12457;50.832;4.346;2023-06-22T10:09:53;18.70;99.90
24338;DHT22;12457;50.832;4.346;2023-06-22T10:12:19;18.70;99.90
24338;DHT22;12457;50.832;4.346;2023-06-22T10:14:44;18.60;99.90
24338;DHT22;12457;50.832;4.346;2023-06-22T10:17:11;18.50;99.90
24338;DHT22;12457;50.832;4.346;2023-06-22T10:19:37;18.40;99.90
24338;DHT22;12457;50.832;4.346;2023-06-22T10:22:05;18.40;99.90
24338;DHT22;12457;50.832;4.346;2023-06-22T10:24:30;18.40;99.90
24338;DHT22;12457;50.832;4.346;2023-06-22T10:26:56;18.30;99.90
24338;DHT22;12457;50.832;4.346;2023-06-22T10:29:22;18.20;99.90
24338;DHT22;12457;50.832;4.346;2023-06-22T10:31:48;18.10;99.90
24338;DHT22;12457;50.832;4.346;2023-06-22T10:34:13;18.00;99.90
24338;DHT22;12457;50.832;4.346;2023-06-22T10:36:39;18.10;99.90
24338;DHT22;12457;50.832;4.346;2023-06-22T10:39:05;18.00;99.90
24338;DHT22;12457;50.832;4.346;2023-06-22T10:41:31;18.00;99.90
24338;DHT22;12457;50.832;4.346;2023-06-22T10:44:02;17.90;99.90
24338;DHT22;12457;50.832;4.346;2023-06-22T10:46:33;17.80;99.90
24338;DHT22;12457;50.832;4.346;2023-06-22T10:48:59;17.90;99.90
24338;DHT22;12457;50.832;4.346;2023-06-22T10:51:25;18.00;99.90
24338;DHT22;12457;50.832;4.346;2023-06-22T10:53:51;17.90;99.90
24338;DHT22;12457;50.832;4.346;2023-06-22T10:56:39;17.90;99.90
24338;DHT22;12457;50.832;4.346;2023-06-22T10:59:05;17.90;99.90
24338;DHT22;12457;50.832;4.346;2023-06-22T11:01:31;18.00;99.90
24338;DHT22;12457;50.832;4.346;2023-06-22T11:03:57;18.00;99.90
24338;DHT22;12457;50.832;4.346;2023-06-22T11:06:23;18.10;99.90
24338;DHT22;12457;50.832;4.346;2023-06-22T11:08:49;18.20;99.90
24338;DHT22;12457;50.832;4.346;2023-06-22T11:11:15;18.30;99.90
24338;DHT22;12457;50.832;4.346;2023-06-22T11:13:43;18.40;99.90
24338;DHT22;12457;50.832;4.346;2023-06-22T11:16:10;18.50;99.90
24338;DHT22;12457;50.832;4.346;2023-06-22T11:18:36;18.50;99.90
24338;DHT22;12457;50.832;4.346;2023-06-22T11:21:02;18.40;99.90
24338;DHT22;12457;50.832;4.346;2023-06-22T11:23:28;18.40;99.90
24338;DHT22;12457;50.832;4.346;2023-06-22T11:25:54;18.40;99.90
24338;DHT22;12457;50.832;4.346;2023-06-22T11:28:20;18.40;99.90
24338;DHT22;12457;50.832;4.346;2023-06-22T11:30:46;18.40;99.90
24338;DHT22;12457;50.832;4.346;2023-06-22T11:33:11;18.40;99.90
24338;DHT22;12457;50.832;4.346;2023-06-22T11:35:37;18.30;99.90
24338;DHT22;12457;50.832;4.346;2023-06-22T11:38:03;18.20;99.90
24338;DHT22;12457;50.832;4.346;2023-06-22T11:40:30;18.20;99.90
24338;DHT22;12457;50.832;4.346;2023-06-22T11:42:58;18.20;99.90
24338;DHT22;12457;50.832;4.346;2023-06-22T11:45:24;18.20;99.90
24338;DHT22;12457;50.832;4.346;2023-06-22T11:47:50;18.20;99.90
24338;DHT22;12457;50.832;4.346;2023-06-22T11:50:17;18.10;99.90
24338;DHT22;12457;50.832;4.346;2023-06-22T11:52:43;18.20;99.90
24338;DHT22;12457;50.832;4.346;2023-06-22T11:55:09;18.30;99.90
24338;DHT22;12457;50.832;4.346;2023-06-22T11:57:36;18.20;99.90
24338;DHT22;12457;50.832;4.346;2023-06-22T12:00:04;18.30;99.90
24338;DHT22;12457;50.832;4.346;2023-06-22T12:02:41;18.30;99.90
24338;DHT22;12457;50.832;4.346;2023-06-22T12:05:07;18.30;99.90
24338;DHT22;12457;50.832;4.346;2023-06-22T12:07:33;18.30;99.90
24338;DHT22;12457;50.832;4.346;2023-06-22T12:10:01;18.30;99.90
24338;DHT22;12457;50.832;4.346;2023-06-22T12:12:39;18.20;99.90
24338;DHT22;12457;50.832;4.346;2023-06-22T12:15:05;18.20;99.90
24338;DHT22;12457;50.832;4.346;2023-06-22T12:17:31;18.20;99.90
24338;DHT22;12457;50.832;4.346;2023-06-22T12:19:57;18.20;99.90
24338;DHT22;12457;50.832;4.346;2023-06-22T12:22:22;18.20;99.90
24338;DHT22;12457;50.832;4.346;2023-06-22T12:24:48;18.10;99.90
24338;DHT22;12457;50.832;4.346;2023-06-22T12:27:15;18.10;99.90
24338;DHT22;12457;50.832;4.346;2023-06-22T12:29:45;18.10;99.90
24338;DHT22;12457;50.832;4.346;2023-06-22T12:32:10;18.20;99.90
24338;DHT22;12457;50.832;4.346;2023-06-22T12:34:38;18.20;99.90
24338;DHT22;12457;50.832;4.346;2023-06-22T12:37:04;18.10;99.90
24338;DHT22;12457;50.832;4.346;2023-06-22T12:39:31;18.10;99.90
24338;DHT22;12457;50.832;4.346;2023-06-22T12:41:57;18.10;99.90
24338;DHT22;12457;50.832;4.346;2023-06-22T12:44:23;18.10;99.90
24338;DHT22;12457;50.832;4.346;2023-06-22T12:46:48;18.10;99.90
24338;DHT22;12457;50.832;4.346;2023-06-22T12:49:15;18.10;99.90
24338;DHT22;12457;50.832;4.346;2023-06-22T12:51:43;18.10;99.90
24338;DHT22;12457;50.832;4.346;2023-06-22T12:54:09;18.10;99.90
24338;DHT22;12457;50.832;4.346;2023-06-22T12:56:35;18.20;99.90
24338;DHT22;12457;50.832;4.346;2023-06-22T12:59:01;18.20;99.90
24338;DHT22;12457;50.832;4.346;2023-06-22T13:01:27;18.30;99.90
24338;DHT22;12457;50.832;4.346;2023-06-22T13:03:54;18.30;99.90
24338;DHT22;12457;50.832;4.346;2023-06-22T13:06:20;18.30;99.90
24338;DHT22;12457;50.832;4.346;2023-06-22T13:08:46;18.30;99.90
24338;DHT22;12457;50.832;4.346;2023-06-22T13:11:11;18.30;99.90
24338;DHT22;12457;50.832;4.346;2023-06-22T13:13:38;18.30;99.90
24338;DHT22;12457;50.832;4.346;2023-06-22T13:16:03;18.30;99.90
24338;DHT22;12457;50.832;4.346;2023-06-22T13:18:29;18.30;99.90
24338;DHT22;12457;50.832;4.346;2023-06-22T13:20:55;18.30;99.90
24338;DHT22;12457;50.832;4.346;2023-06-22T13:23:21;18.40;99.90
24338;DHT22;12457;50.832;4.346;2023-06-22T13:25:47;18.40;99.90
24338;DHT22;12457;50.832;4.346;2023-06-22T13:28:13;18.40;99.90
24338;DHT22;12457;50.832;4.346;2023-06-22T13:30:41;18.30;99.90
24338;DHT22;12457;50.832;4.346;2023-06-22T13:33:08;18.30;99.90
24338;DHT22;12457;50.832;4.346;2023-06-22T13:35:34;18.30;99.90
24338;DHT22;12457;50.832;4.346;2023-06-22T13:38:01;18.30;99.90
24338;DHT22;12457;50.832;4.346;2023-06-22T13:40:26;18.30;99.90
24338;DHT22;12457;50.832;4.346;2023-06-22T13:42:52;18.20;99.90
24338;DHT22;12457;50.832;4.346;2023-06-22T13:45:18;18.10;99.90
24338;DHT22;12457;50.832;4.346;2023-06-22T13:47:45;18.10;99.90
24338;DHT22;12457;50.832;4.346;2023-06-22T13:50:11;18.10;99.90
24338;DHT22;12457;50.832;4.346;2023-06-22T13:52:38;18.00;99.90
24338;DHT22;12457;50.832;4.346;2023-06-22T13:55:04;17.90;99.90
24338;DHT22;12457;50.832;4.346;2023-06-22T13:57:31;17.90;99.90
24338;DHT22;12457;50.832;4.346;2023-06-22T13:59:57;17.90;99.90
24338;DHT22;12457;50.832;4.346;2023-06-22T14:02:23;18.00;99.90
24338;DHT22;12457;50.832;4.346;2023-06-22T14:04:49;17.90;99.90
24338;DHT22;12457;50.832;4.346;2023-06-22T14:07:15;18.00;99.90
24338;DHT22;12457;50.832;4.346;2023-06-22T14:09:40;18.00;99.90
24338;DHT22;12457;50.832;4.346;2023-06-22T14:12:07;18.00;99.90
24338;DHT22;12457;50.832;4.346;2023-06-22T14:14:33;17.90;99.90
24338;DHT22;12457;50.832;4.346;2023-06-22T14:16:59;17.80;99.90
24338;DHT22;12457;50.832;4.346;2023-06-22T14:19:25;17.90;99.90
24338;DHT22;12457;50.832;4.346;2023-06-22T14:21:50;17.90;99.90
24338;DHT22;12457;50.832;4.346;2023-06-22T14:24:16;17.90;99.90
24338;DHT22;12457;50.832;4.346;2023-06-22T14:26:42;17.80;99.90
24338;DHT22;12457;50.832;4.346;2023-06-22T14:29:11;17.90;99.90
24338;DHT22;12457;50.832;4.346;2023-06-22T14:31:37;17.90;99.90
24338;DHT22;12457;50.832;4.346;2023-06-22T14:34:02;17.90;99.90
24338;DHT22;12457;50.832;4.346;2023-06-22T14:36:29;18.00;99.90
24338;DHT22;12457;50.832;4.346;2023-06-22T14:38:54;18.00;99.90
24338;DHT22;12457;50.832;4.346;2023-06-22T14:41:20;18.10;99.90
24338;DHT22;12457;50.832;4.346;2023-06-22T14:46:56;18.10;99.90
24338;DHT22;12457;50.832;4.346;2023-06-22T14:49:23;18.10;99.90
24338;DHT22;12457;50.832;4.346;2023-06-22T14:51:49;18.20;99.90
24338;DHT22;12457;50.832;4.346;2023-06-22T14:54:15;18.20;99.90
24338;DHT22;12457;50.832;4.346;2023-06-22T14:56:41;18.20;99.90
24338;DHT22;12457;50.832;4.346;2023-06-22T14:59:08;18.30;99.90
24338;DHT22;12457;50.832;4.346;2023-06-22T15:01:34;18.30;99.90
24338;DHT22;12457;50.832;4.346;2023-06-22T15:03:59;18.30;99.90
24338;DHT22;12457;50.832;4.346;2023-06-22T15:06:27;18.30;99.90
24338;DHT22;12457;50.832;4.346;2023-06-22T15:08:53;18.40;99.90
24338;DHT22;12457;50.832;4.346;2023-06-22T15:11:19;18.40;99.90
24338;DHT22;12457;50.832;4.346;2023-06-22T15:14:07;18.50;99.90
24338;DHT22;12457;50.832;4.346;2023-06-22T15:16:34;18.60;99.90
24338;DHT22;12457;50.832;4.346;2023-06-22T15:19:00;18.70;99.90
24338;DHT22;12457;50.832;4.346;2023-06-22T15:21:26;18.80;99.90
24338;DHT22;12457;50.832;4.346;2023-06-22T15:23:51;18.80;99.90
24338;DHT22;12457;50.832;4.346;2023-06-22T15:26:17;18.80;99.90
24338;DHT22;12457;50.832;4.346;2023-06-22T15:28:49;18.70;99.90
24338;DHT22;12457;50.832;4.346;2023-06-22T15:31:17;18.80;99.90
24338;DHT22;12457;50.832;4.346;2023-06-22T15:33:47;18.80;99.90
24338;DHT22;12457;50.832;4.346;2023-06-22T15:36:14;18.70;99.90
24338;DHT22;12457;50.832;4.346;2023-06-22T15:38:41;18.70;99.90